עמוד ראשי
תמונות לווין תחזית 10-יוםאקליםתחזית ים סופות טרופיות ברקים שדות תעופהשאלות נפוצות עלון אודות
מזג אוויר : אירופה אפריקה אמריקה הצפונית אמריקה הדרומית אסיה אוסטרליה-אוקיאניה אחרים
שפות איש קשר

שטוטגרט, גרמניה

קו רוחב: 48-41N, קו אורך: 009-13E, גובה: 396מטר


METAR: EDDS 302220Z 27004KT CAVOK 22/17 Q1017
TAF: EDDS 301700Z 3018/3118 VRB03KT CAVOK BECMG 3112/3115 20005KT

זמן: 00:28 (22:28 UTC)

תצפית מזג אוויר נוכחית

הדו"ח נערך לפני 8דקות, בשעה 22:20 UTC
רוח 4קשר מכיוון מערב
טמפרטורת 22 צלסיוס
לחות 73%
לחץ 1017 hPa
ראות 10 קילומטר או יותר
ללא עננים שבסיסם נמוך מ 1500 רגל או קומולונימבוס

שנה יחידות

תחזית

הדו"ח נערך לפני 5 שעות ו 28דקות, בשעה 17:00 UTC
תחזית בתוקף מ 30 ב 18 UTC עד 31 ב 18 UTC
רוח 3קשר עם כיוונים משתנים
ראות 10 קילומטר או יותר
ללא עננים שבסיסם נמוך מ 1500 רגל או קומולונימבוס
יעשה מ
31 ב 12 UTC עד 31 ב 15 UTC
רוח 5קשר מכיוון דרום/דרום-מערב
המידע באתר זה מותנה של תניית פטור
מזג אוויר : אירופה אפריקה אמריקה הצפונית אמריקה הדרומית אסיה אוסטרליה-אוקיאניה אחרים
תמונות לווין תחזית 10-יוםאקליםתחזית ים סופות טרופיות ברקים שדות תעופהשאלות נפוצות שפות איש קשר עלון אודות